Time;durP1;ratioP1;P1;durP2;ratioP2;P2;SDS_P1;SDS_P2;PMS_P1;PMS_P2;Temp;Humidity;BMP_temperature;BMP_pressure;BME280_temperature;BME280_humidity;BME280_pressure;Samples;Min_cycle;Max_cycle;Signal;HPM_P1;HPM_P2
2023/01/03 00:01:35;;;;;;;25.80;14.38;;;;;;;5.27;100.00;102380.38;5074594;28;20572;-51
2023/01/03 00:04:04;;;;;;;23.27;15.23;;;;;;;5.26;100.00;102379.50;5074939;28;20157;-51
2023/01/03 00:06:37;;;;;;;23.25;14.73;;;;;;;5.27;100.00;102377.75;5074712;28;20048;-57
2023/01/03 00:09:08;;;;;;;23.45;15.27;;;;;;;5.28;100.00;102382.09;5074685;28;20063;-57
2023/01/03 00:14:25;;;;;;;23.40;13.85;;;;;;;5.29;100.00;102383.81;5072852;28;20090;-57
2023/01/03 00:16:55;;;;;;;24.77;13.70;;;;;;;5.28;100.00;102382.09;5070445;28;20067;-52
2023/01/03 00:19:25;;;;;;;22.55;13.90;;;;;;;5.29;100.00;102387.28;5073670;28;20087;-51
2023/01/03 00:21:55;;;;;;;23.38;13.80;;;;;;;5.29;100.00;102386.41;5074498;28;20040;-57
2023/01/03 00:24:23;;;;;;;23.90;13.65;;;;;;;5.30;100.00;102391.59;5074393;28;20037;-52
2023/01/03 00:26:51;;;;;;;23.15;12.85;;;;;;;5.30;100.00;102391.59;5072515;28;20503;-52
2023/01/03 00:29:20;;;;;;;21.75;13.50;;;;;;;5.29;100.00;102389.03;5071555;28;20049;-52
2023/01/03 00:31:48;;;;;;;20.95;12.75;;;;;;;5.28;100.00;102392.53;5073251;28;20376;-52
2023/01/03 00:34:16;;;;;;;23.52;12.55;;;;;;;5.24;100.00;102403.00;5073898;28;20044;-52
2023/01/03 00:36:44;;;;;;;19.92;12.23;;;;;;;5.25;100.00;102396.91;5070617;28;20040;-57
2023/01/03 00:39:13;;;;;;;22.67;11.98;;;;;;;5.23;100.00;102388.25;5072936;28;20050;-57
2023/01/03 00:41:44;;;;;;;18.88;12.32;;;;;;;5.22;100.00;102402.19;5071356;28;20515;-57
2023/01/03 00:44:12;;;;;;;19.67;12.48;;;;;;;5.20;100.00;102406.56;5071213;28;20098;-57
2023/01/03 00:46:41;;;;;;;23.42;14.18;;;;;;;5.19;100.00;102414.41;5072604;28;20119;-58
2023/01/03 00:49:10;;;;;;;21.25;13.13;;;;;;;5.18;100.00;102413.56;5072535;28;20048;-57
2023/01/03 00:51:40;;;;;;;19.88;12.52;;;;;;;5.16;100.00;102415.31;5069422;28;20143;-57
2023/01/03 00:54:10;;;;;;;21.05;12.95;;;;;;;5.14;100.00;102417.13;5072850;28;20048;-57
2023/01/03 00:56:44;;;;;;;24.70;13.65;;;;;;;5.06;100.00;102408.56;5073888;28;20049;-57
2023/01/03 00:59:14;;;;;;;22.13;12.45;;;;;;;5.01;100.00;102420.81;5073719;28;20106;-57
2023/01/03 01:01:45;;;;;;;20.38;12.73;;;;;;;4.95;100.00;102424.38;5072227;28;20110;-57
2023/01/03 01:04:17;;;;;;;21.20;12.93;;;;;;;4.96;100.00;102430.44;5070873;28;20052;-49
2023/01/03 01:06:48;;;;;;;20.88;12.38;;;;;;;4.91;100.00;102430.53;5072621;28;20465;-51
2023/01/03 01:09:18;;;;;;;20.25;12.95;;;;;;;4.83;100.00;102428.03;5072179;28;20098;-51
2023/01/03 01:11:48;;;;;;;22.50;13.25;;;;;;;4.82;100.00;102435.91;5069689;28;20056;-57
2023/01/03 01:14:21;;;;;;;21.00;12.45;;;;;;;4.80;100.00;102438.53;5071488;28;20049;-58
2023/01/03 01:16:52;;;;;;;21.77;12.90;;;;;;;4.81;100.00;102439.38;5073269;28;20040;-51
2023/01/03 01:19:22;;;;;;;21.23;13.07;;;;;;;4.82;100.00;102451.53;5073350;28;20511;-53
2023/01/03 01:21:50;;;;;;;19.90;12.13;;;;;;;4.79;100.00;102454.19;5072994;28;20052;-51
2023/01/03 01:24:19;;;;;;;20.48;12.38;;;;;;;4.76;100.00;102452.50;5072745;28;20480;-57
2023/01/03 01:26:48;;;;;;;22.20;13.57;;;;;;;4.77;100.00;102448.13;5069854;28;20052;-51
2023/01/03 01:29:17;;;;;;;20.50;14.65;;;;;;;4.77;100.00;102451.59;5071941;28;20037;-57
2023/01/03 01:31:46;;;;;;;21.33;14.43;;;;;;;4.80;100.00;102450.69;5071922;28;20369;-51
2023/01/03 01:34:16;;;;;;;23.88;15.25;;;;;;;4.79;100.00;102451.59;5072975;28;20047;-57
2023/01/03 01:36:45;;;;;;;23.30;14.63;;;;;;;4.80;100.00;102453.28;5072881;28;20052;-57
2023/01/03 01:39:15;;;;;;;22.33;14.38;;;;;;;4.79;100.00;102451.59;5072559;28;20131;-57
2023/01/03 01:44:54;;;;;;;23.95;15.70;;;;;;;4.80;100.00;102459.38;5072315;28;20098;-57
2023/01/03 01:47:36;;;;;;;25.25;14.75;;;;;;;4.75;100.00;102455.97;5067918;28;20522;-57
2023/01/03 01:50:13;;;;;;;25.27;14.77;;;;;;;4.71;100.00;102454.31;5070586;28;20105;-57
2023/01/03 01:52:46;;;;;;;21.85;14.02;;;;;;;4.70;100.00;102461.28;5070614;28;20048;-51
2023/01/03 01:55:16;;;;;;;;;;;;;;;4.67;100.00;102465.66;5072793;28;20545;-51
2023/01/03 01:57:44;;;;;;;22.50;14.88;;;;;;;4.60;100.00;102466.63;5072180;28;20511;-48
2023/01/03 02:00:15;;;;;;;24.05;14.70;;;;;;;4.65;100.00;102462.19;5072539;28;20040;-51
2023/01/03 02:02:44;;;;;;;21.52;13.90;;;;;;;4.64;100.00;102463.09;5072592;28;20040;-47
2023/01/03 02:05:15;;;;;;;18.17;13.45;;;;;;;4.56;100.00;102474.47;5072566;28;20056;-49
2023/01/03 02:07:44;;;;;;;23.70;14.77;;;;;;;4.53;100.00;102469.31;5072190;28;20060;-57
2023/01/03 02:10:13;;;;;;;19.83;13.35;;;;;;;4.46;100.00;102464.19;5068139;28;20091;-57
2023/01/03 02:15:52;;;;;;;20.48;13.95;;;;;;;4.33;100.00;102466.97;5072502;28;20060;-58
2023/01/03 02:18:42;;;;;;;21.00;14.05;;;;;;;4.34;100.00;102473.06;5072418;28;20423;-57
2023/01/03 02:21:42;;;;;;;21.58;13.10;;;;;;;4.34;100.00;102478.28;5070895;28;20099;-57
2023/01/03 02:24:33;;;;;;;19.75;12.88;;;;;;;4.22;100.00;102480.13;5068958;28;20832;-57
2023/01/03 02:27:11;;;;;;;18.95;12.95;;;;;;;4.19;100.00;102489.75;5072344;28;20499;-58
2023/01/03 02:30:20;;;;;;;21.58;14.05;;;;;;;4.10;100.00;102480.28;5072305;28;20090;-58
2023/01/03 02:33:05;;;;;;;24.20;14.20;;;;;;;4.01;100.00;102483.84;5026208;28;20052;-57
2023/01/03 02:35:38;;;;;;;23.50;15.80;;;;;;;3.98;100.00;102485.63;5069666;28;20438;-57
2023/01/03 02:38:17;;;;;;;27.75;16.83;;;;;;;4.00;100.00;102484.72;5072315;28;20059;-52
2023/01/03 02:40:50;;;;;;;25.85;15.48;;;;;;;4.02;100.00;102477.78;5072361;28;20105;-53
2023/01/03 02:43:26;;;;;;;23.50;15.30;;;;;;;4.04;100.00;102481.22;5072249;28;20135;-52
2023/01/03 02:46:04;;;;;;;23.95;16.08;;;;;;;4.07;100.00;102483.78;5072403;28;20496;-57
2023/01/03 02:48:46;;;;;;;26.90;15.73;;;;;;;4.07;100.00;102481.16;5072192;28;20334;-57
2023/01/03 02:51:18;;;;;;;28.42;17.48;;;;;;;4.12;100.00;102482.84;5069275;28;20055;-57
2023/01/03 02:53:49;;;;;;;23.13;16.35;;;;;;;4.12;100.00;102475.94;5069290;28;20052;-57
2023/01/03 02:56:22;;;;;;;33.40;19.30;;;;;;;4.14;100.00;102479.34;5072186;28;20051;-57
2023/01/03 02:58:56;;;;;;;34.17;20.17;;;;;;;4.21;100.00;102480.16;5072240;28;20036;-57
2023/01/03 03:01:26;;;;;;;34.13;20.65;;;;;;;4.25;100.00;102471.41;5072235;28;20075;-57
2023/01/03 03:03:57;;;;;;;38.92;21.70;;;;;;;4.26;100.00;102473.16;5071917;28;20395;-57
2023/01/03 03:06:32;;;;;;;38.00;22.25;;;;;;;4.32;100.00;102467.00;5071693;28;20075;-57
2023/01/03 03:09:00;;;;;;;39.90;22.98;;;;;;;4.35;100.00;102466.94;5071836;28;20049;-57
2023/01/03 03:14:23;;;;;;;37.83;21.17;;;;;;;4.42;100.00;102460.78;5073157;28;20087;-57
2023/01/03 03:16:54;;;;;;;38.85;22.58;;;;;;;4.43;100.00;102453.81;5070284;28;20118;-57
2023/01/03 03:25:12;;;;;;;35.22;20.98;;;;;;;4.40;100.00;102450.41;5075384;28;20052;-57
2023/01/03 03:30:33;;;;;;;31.63;19.67;;;;;;;4.42;100.00;102458.19;5067676;28;20040;-57
2023/01/03 03:33:05;;;;;;;33.83;20.17;;;;;;;4.40;100.00;102462.53;5073506;28;20041;-57
2023/01/03 03:35:45;;;;;;;33.28;20.75;;;;;;;4.40;100.00;102455.59;5074491;28;20117;-57
2023/01/03 03:38:18;;;;;;;33.25;20.95;;;;;;;4.43;100.00;102459.03;5069966;28;20049;-57
2023/01/03 03:46:44;;;;;;;33.92;21.10;;;;;;;4.45;100.00;102468.56;5054179;28;20052;-57
2023/01/03 03:49:40;;;;;;;31.70;20.90;;;;;;;4.47;100.00;102473.75;5073865;28;20170;-57
2023/01/03 03:52:14;;;;;;;35.83;21.08;;;;;;;4.47;100.00;102466.81;5071658;28;20110;-57
2023/01/03 03:54:47;;;;;;;33.80;20.88;;;;;;;4.47;100.00;102471.13;5071902;28;20056;-51
2023/01/03 03:57:20;;;;;;;34.20;22.20;;;;;;;4.49;100.00;102472.00;5074794;28;20091;-48
2023/01/03 03:59:56;;;;;;;32.92;20.98;;;;;;;4.48;100.00;102478.06;5074566;28;20098;-51
2023/01/03 04:02:26;;;;;;;33.58;20.73;;;;;;;4.44;100.00;102477.25;5074865;28;20079;-50
2023/01/03 04:04:58;;;;;;;35.45;22.50;;;;;;;4.42;100.00;102475.53;5074698;28;20052;-51
2023/01/03 04:07:28;;;;;;;32.57;22.17;;;;;;;4.29;100.00;102488.72;5074833;28;20098;-48
2023/01/03 04:09:56;;;;;;;34.55;21.77;;;;;;;4.25;100.00;102491.41;5072314;28;20576;-50
2023/01/03 04:12:24;;;;;;;31.83;20.75;;;;;;;4.23;100.00;102489.66;5071212;28;20045;-48
2023/01/03 04:14:53;;;;;;;28.80;20.60;;;;;;;4.20;100.00;102494.94;5073425;28;20099;-50
2023/01/03 04:17:23;;;;;;;31.95;19.73;;;;;;;4.15;100.00;102494.09;5069656;28;20567;-53
2023/01/03 04:19:51;;;;;;;28.15;18.92;;;;;;;4.05;100.00;102498.56;5071089;28;20060;-51
2023/01/03 04:22:19;;;;;;;31.33;18.95;;;;;;;4.03;100.00;102502.06;5074354;28;20119;-51
2023/01/03 04:24:49;;;;;;;27.10;18.25;;;;;;;3.96;100.00;102506.47;5070601;28;20381;-53
2023/01/03 04:27:17;;;;;;;28.17;17.83;;;;;;;3.90;100.00;102496.16;5070693;28;20048;-51
2023/01/03 04:29:45;;;;;;;29.48;17.58;;;;;;;3.91;100.00;102500.44;5073890;28;20123;-54
2023/01/03 04:32:13;;;;;;;26.48;17.30;;;;;;;3.91;100.00;102515.22;5073024;28;20060;-57
2023/01/03 04:34:41;;;;;;;23.23;16.55;;;;;;;3.88;100.00;102514.34;5074237;28;20045;-57
2023/01/03 04:37:10;;;;;;;21.48;15.27;;;;;;;3.91;100.00;102512.63;5072749;28;20052;-50
2023/01/03 04:39:38;;;;;;;25.67;16.25;;;;;;;3.95;100.00;102515.16;5074121;28;20115;-48
2023/01/03 04:44:50;;;;;;;22.73;15.20;;;;;;;3.87;100.00;102515.25;5073829;28;20105;-51
2023/01/03 04:47:18;;;;;;;23.27;15.07;;;;;;;3.86;100.00;102525.69;5074133;28;20547;-50
2023/01/03 04:49:46;;;;;;;21.75;15.27;;;;;;;3.78;100.00;102520.56;5072922;28;20040;-51
2023/01/03 04:52:17;;;;;;;22.25;14.57;;;;;;;3.78;100.00;102523.16;5073694;28;20061;-50
2023/01/03 04:54:45;;;;;;;21.52;14.52;;;;;;;3.67;100.00;102527.59;5073960;28;20060;-51
2023/01/03 04:57:15;;;;;;;22.50;14.35;;;;;;;3.57;100.00;102524.19;5073932;28;20049;-50
2023/01/03 04:59:43;;;;;;;22.17;14.63;;;;;;;3.62;100.00;102516.38;5074142;28;20067;-48
2023/01/03 05:02:11;;;;;;;26.27;15.27;;;;;;;3.61;100.00;102520.69;5072634;28;20045;-57
2023/01/03 05:04:39;;;;;;;23.23;14.27;;;;;;;3.59;100.00;102519.88;5073654;28;20040;-57
2023/01/03 05:07:07;;;;;;;20.23;13.70;;;;;;;3.57;100.00;102520.75;5073508;28;20054;-57
2023/01/03 05:09:35;;;;;;;19.73;13.07;;;;;;;3.57;100.00;102515.53;5073696;28;20048;-56
2023/01/03 05:12:04;;;;;;;21.17;14.02;;;;;;;3.49;100.00;102516.47;5073579;28;20387;-49
2023/01/03 05:14:35;;;;;;;23.65;13.55;;;;;;;3.46;100.00;102516.50;5071280;28;20506;-48
2023/01/03 05:17:04;;;;;;;24.05;14.10;;;;;;;3.47;100.00;102506.97;5068263;28;20068;-53
2023/01/03 05:19:34;;;;;;;18.98;12.95;;;;;;;3.40;100.00;102511.34;5072767;28;20044;-51
2023/01/03 05:27:57;;;;;;;21.00;13.15;;;;;;;3.18;100.00;102514.13;5068796;28;20048;-52
2023/01/03 05:30:27;;;;;;;21.40;13.85;;;;;;;3.25;100.00;102516.69;5069610;28;20055;-51
2023/01/03 05:32:56;;;;;;;20.08;12.77;;;;;;;3.22;100.00;102514.97;5071082;28;20059;-52
2023/01/03 05:35:24;;;;;;;23.63;13.90;;;;;;;3.09;100.00;102511.59;5069012;28;20084;-50
2023/01/03 05:37:53;;;;;;;19.50;13.43;;;;;;;3.11;100.00;102515.06;5072160;28;20067;-53
2023/01/03 05:40:21;;;;;;;21.35;12.73;;;;;;;3.01;100.00;102515.97;5072991;28;20043;-50
2023/01/03 05:42:49;;;;;;;18.65;12.23;;;;;;;2.93;100.00;102509.97;5073006;28;20132;-53
2023/01/03 05:45:18;;;;;;;19.17;12.95;;;;;;;2.94;100.00;102516.91;5072856;28;20084;-57
2023/01/03 05:47:47;;;;;;;21.67;13.68;;;;;;;2.99;100.00;102507.34;5069361;28;20064;-59
2023/01/03 05:50:15;;;;;;;19.88;13.10;;;;;;;2.95;100.00;102508.25;5068904;28;20531;-57
2023/01/03 05:52:44;;;;;;;19.10;12.95;;;;;;;2.95;100.00;102516.88;5071707;28;20388;-59
2023/01/03 05:55:12;;;;;;;20.30;12.40;;;;;;;2.92;100.00;102516.91;5072303;28;20484;-59
2023/01/03 05:57:40;;;;;;;21.38;12.93;;;;;;;2.90;100.00;102510.00;5072569;28;20056;-57
2023/01/03 06:00:09;;;;;;;19.48;12.43;;;;;;;2.88;100.00;102513.47;5072127;28;20068;-59
2023/01/03 06:02:37;;;;;;;20.17;12.30;;;;;;;2.90;100.00;102510.00;5072347;28;20049;-58
2023/01/03 06:05:08;;;;;;;26.13;13.48;;;;;;;2.90;100.00;102507.41;5068825;28;20436;-58
2023/01/03 06:07:37;;;;;;;22.45;13.10;;;;;;;2.79;100.00;102502.25;5068780;28;20051;-57
2023/01/03 06:10:06;;;;;;;22.67;13.57;;;;;;;2.75;100.00;102508.34;5072411;28;20040;-57
2023/01/03 06:12:34;;;;;;;20.92;12.95;;;;;;;2.71;100.00;102494.50;5072690;28;20044;-57
2023/01/03 06:15:03;;;;;;;19.17;12.45;;;;;;;2.70;100.00;102500.59;5072010;28;20127;-58
2023/01/03 06:20:18;;;;;;;19.08;12.30;;;;;;;2.66;100.00;102501.47;5068719;28;20056;-58
2023/01/03 06:22:46;;;;;;;21.08;12.93;;;;;;;2.61;100.00;102490.25;5072648;28;20041;-57
2023/01/03 06:25:15;;;;;;;23.67;13.02;;;;;;;2.57;100.00;102497.19;5072318;28;20469;-57
2023/01/03 06:27:43;;;;;;;21.65;12.52;;;;;;;2.51;100.00;102497.22;5072612;28;20076;-57
2023/01/03 06:30:15;;;;;;;22.83;12.95;;;;;;;2.46;100.00;102497.22;5068986;28;20053;-57
2023/01/03 06:32:44;;;;;;;20.08;12.00;;;;;;;2.50;100.00;102505.88;5066904;28;20061;-58
2023/01/03 06:35:13;;;;;;;23.92;12.60;;;;;;;2.52;100.00;102514.53;5072221;28;20557;-57
2023/01/03 06:37:42;;;;;;;20.95;13.38;;;;;;;2.53;100.00;102518.84;5072573;28;20041;-47
2023/01/03 06:40:11;;;;;;;19.70;12.45;;;;;;;2.54;100.00;102503.25;5072112;28;20055;-48
2023/01/03 06:42:41;;;;;;;19.38;12.98;;;;;;;2.64;100.00;102503.22;5072327;28;20052;-47
2023/01/03 06:53:35;;;;;;;22.98;13.15;;;;;;;2.68;100.00;102494.53;5076458;28;20123;-58
2023/01/03 06:56:04;;;;;;;20.90;13.40;;;;;;;2.65;100.00;102495.41;5074724;28;20503;-58
2023/01/03 06:58:33;;;;;;;21.40;13.73;;;;;;;2.66;100.00;102501.47;5071897;28;20481;-52
2023/01/03 07:01:03;;;;;;;21.75;12.10;;;;;;;2.69;100.00;102485.88;5073294;28;20044;-49
2023/01/03 07:03:32;;;;;;;21.58;13.63;;;;;;;2.66;100.00;102488.50;5075306;28;20495;-53
2023/01/03 07:06:00;;;;;;;23.88;13.00;;;;;;;2.69;100.00;102488.47;5075943;28;20053;-49
2023/01/03 07:08:28;;;;;;;19.63;12.60;;;;;;;2.69;100.00;102485.88;5076075;28;20517;-48
2023/01/03 07:10:59;;;;;;;19.20;11.68;;;;;;;2.72;100.00;102482.41;5075841;28;20174;-51
2023/01/03 07:16:14;;;;;;;18.77;11.52;;;;;;;2.69;100.00;102488.47;5075453;28;20049;-48
2023/01/03 07:18:43;;;;;;;22.15;12.55;;;;;;;2.69;100.00;102485.88;5075871;28;20123;-50
2023/01/03 07:21:21;;;;;;;16.88;11.13;;;;;;;2.68;100.00;102478.94;5075846;28;20112;-58
2023/01/03 07:23:49;;;;;;;24.73;11.07;;;;;;;2.70;100.00;102485.00;5075705;28;20090;-58
2023/01/03 07:26:19;;;;;;;18.90;11.20;;;;;;;2.75;100.00;102480.63;5075555;28;20044;-58
2023/01/03 07:28:47;;;;;;;18.75;11.95;;;;;;;2.71;100.00;102484.09;5071631;28;20053;-58
2023/01/03 07:31:15;;;;;;;20.55;10.77;;;;;;;2.74;100.00;102483.22;5070858;28;20138;-58
2023/01/03 07:33:44;;;;;;;17.77;10.50;;;;;;;2.73;100.00;102491.88;5075451;28;20040;-58
2023/01/03 07:36:15;;;;;;;19.77;11.38;;;;;;;2.77;100.00;102501.38;5075138;28;20071;-58
2023/01/03 07:38:45;;;;;;;18.13;10.73;;;;;;;2.80;100.00;102499.66;5075911;28;20479;-58
2023/01/03 07:41:14;;;;;;;18.58;11.57;;;;;;;2.82;100.00;102490.13;5075183;28;20431;-58
2023/01/03 07:43:44;;;;;;;17.65;10.65;;;;;;;2.82;100.00;102495.31;5075229;28;20410;-58
2023/01/03 07:46:15;;;;;;;19.58;11.50;;;;;;;2.87;100.00;102498.72;5073935;28;20063;-51
2023/01/03 07:48:44;;;;;;;19.65;11.57;;;;;;;2.89;100.00;102493.56;5075227;28;20067;-51
2023/01/03 07:51:16;;;;;;;18.80;11.15;;;;;;;2.92;100.00;102501.31;5074644;28;20071;-51
2023/01/03 07:53:44;;;;;;;21.30;11.32;;;;;;;3.00;100.00;102498.66;5072545;28;20067;-56
2023/01/03 07:56:15;;;;;;;20.20;11.77;;;;;;;2.96;100.00;102497.81;5073491;28;20049;-56
2023/01/03 07:58:45;;;;;;;22.67;11.57;;;;;;;2.94;100.00;102496.97;5074063;28;20055;-50
2023/01/03 08:01:16;;;;;;;18.10;11.52;;;;;;;3.03;100.00;102491.69;5073951;28;20510;-50
2023/01/03 08:03:45;;;;;;;22.38;12.25;;;;;;;3.02;100.00;102492.56;5069267;28;20055;-53
2023/01/03 08:06:16;;;;;;;17.88;11.18;;;;;;;3.05;100.00;102504.69;5070136;28;20127;-51
2023/01/03 08:13:16;;;;;;;18.63;11.38;;;;;;;3.12;100.00;102503.78;5073567;28;20076;-49
2023/01/03 08:14:20;;;;;;;25.13;11.35;;;;;;;3.14;100.00;102504.63;5073352;28;20052;-50
2023/01/03 08:16:54;;;;;;;20.27;11.05;;;;;;;3.17;100.00;102504.59;5068203;28;20504;-56
2023/01/03 08:19:22;;;;;;;23.23;13.10;;;;;;;3.22;100.00;102501.97;5069661;28;20127;-56
2023/01/03 08:21:50;;;;;;;19.30;11.93;;;;;;;3.25;100.00;102506.28;5073749;28;20541;-56
2023/01/03 08:24:18;;;;;;;21.20;12.23;;;;;;;3.28;100.00;102501.06;5071367;28;20052;-56
2023/01/03 08:26:47;;;;;;;21.17;12.13;;;;;;;3.37;100.00;102517.44;5069246;28;20388;-56
2023/01/03 08:29:15;;;;;;;20.85;11.93;;;;;;;3.42;100.00;102519.16;5072784;28;20048;-56
2023/01/03 08:31:51;;;;;;;23.52;12.25;;;;;;;3.42;100.00;102511.34;5072769;28;20063;-56
2023/01/03 08:34:20;;;;;;;22.13;12.18;;;;;;;3.44;100.00;102504.41;5071439;28;20054;-56
2023/01/03 08:37:01;;;;;;;18.45;11.38;;;;;;;3.51;100.00;102509.50;5068124;28;20044;-56
2023/01/03 08:39:35;;;;;;;23.50;12.40;;;;;;;3.60;100.00;102507.69;5071216;28;20056;-51
2023/01/03 08:42:06;;;;;;;21.48;12.13;;;;;;;3.60;100.00;102512.91;5073202;28;20131;-50
2023/01/03 08:44:35;;;;;;;25.42;11.77;;;;;;;3.66;100.00;102518.06;5073274;28;20071;-52
2023/01/03 08:47:08;;;;;;;21.60;11.70;;;;;;;3.71;100.00;102516.28;5072981;28;20602;-51
2023/01/03 08:49:38;;;;;;;18.50;11.02;;;;;;;3.82;100.00;102518.78;5073166;28;20091;-50
2023/01/03 08:52:06;;;;;;;20.05;11.13;;;;;;;3.80;100.00;102526.59;5029510;28;1156281;-52
2023/01/03 08:54:34;;;;;;;20.15;11.43;;;;;;;3.90;100.00;102524.78;5070638;28;20052;-52
2023/01/03 08:57:02;;;;;;;24.25;12.38;;;;;;;3.93;100.00;102531.66;5073945;28;20044;-50
2023/01/03 08:59:30;;;;;;;22.30;12.18;;;;;;;3.99;100.00;102527.25;5073857;28;20044;-52
2023/01/03 09:01:59;;;;;;;19.90;12.27;;;;;;;4.02;100.00;102531.56;5073850;28;20051;-52
2023/01/03 09:04:29;;;;;;;21.92;12.93;;;;;;;4.03;100.00;102533.31;5073709;28;20056;-50
2023/01/03 09:06:57;;;;;;;22.60;12.40;;;;;;;4.07;100.00;102535.00;5073234;28;20067;-51
2023/01/03 09:09:25;;;;;;;20.45;12.50;;;;;;;4.15;100.00;102538.38;5069768;28;20071;-50
2023/01/03 09:11:53;;;;;;;20.30;12.52;;;;;;;4.16;100.00;102534.91;5068615;28;20511;-51
2023/01/03 09:14:21;;;;;;;19.88;12.48;;;;;;;4.18;100.00;102548.75;5071678;28;20044;-52
2023/01/03 09:16:49;;;;;;;21.20;12.52;;;;;;;4.23;100.00;102544.38;5072117;28;20048;-52
2023/01/03 09:19:17;;;;;;;20.63;12.35;;;;;;;4.27;100.00;102536.50;5073093;28;20098;-49
2023/01/03 09:21:47;;;;;;;19.20;11.45;;;;;;;4.33;100.00;102532.09;5069542;28;20033;-51
2023/01/03 09:24:15;;;;;;;21.13;11.77;;;;;;;4.44;100.00;102539.78;5070744;28;20083;-56
2023/01/03 09:26:43;;;;;;;21.30;11.48;;;;;;;4.55;100.00;102531.81;5073204;28;20049;-56
2023/01/03 09:29:19;;;;;;;19.88;11.60;;;;;;;4.62;100.00;102532.63;5070311;28;20055;-56
2023/01/03 09:31:47;;;;;;;22.50;12.02;;;;;;;4.70;100.00;102530.75;5067494;28;20395;-56
2023/01/03 09:34:19;;;;;;;25.60;11.95;;;;;;;4.78;100.00;102522.84;5073106;28;20106;-56
2023/01/03 09:36:48;;;;;;;23.98;12.27;;;;;;;4.81;100.00;102523.66;5073476;28;20091;-56
2023/01/03 09:39:16;;;;;;;24.35;11.82;;;;;;;4.85;100.00;102524.47;5072462;28;20123;-56
2023/01/03 09:43:11;;;;;;;23.42;12.10;;;;;;;4.89;100.00;102527.03;5072491;28;20052;-56
2023/01/03 09:44:33;;;;;;;27.23;12.13;;;;;;;4.94;100.00;102531.31;5068871;28;20044;-56
2023/01/03 09:47:02;;;;;;;30.00;13.93;;;;;;;4.98;100.00;102528.63;5068478;28;20094;-56
2023/01/03 09:49:30;;;;;;;26.25;13.52;;;;;;;5.01;100.00;102527.72;5070472;28;20068;-57
2023/01/03 10:03:46;;;;;;;25.17;14.25;;;;;;;5.19;100.00;102522.22;5072659;28;20098;-50
2023/01/03 10:06:33;;;;;;;25.13;14.40;;;;;;;5.25;100.00;102524.75;5072579;28;20059;-52
2023/01/03 10:09:19;;;;;;;27.35;14.00;;;;;;;5.29;100.00;102522.94;5069211;28;20501;-52
2023/01/03 10:11:59;;;;;;;25.55;12.93;;;;;;;5.34;100.00;102528.09;5069540;28;20587;-51
2023/01/03 10:14:45;;;;;;;29.52;14.70;;;;;;;5.36;100.00;102529.78;5072484;28;20036;-56
2023/01/03 10:17:22;;;;;;;24.45;12.73;;;;;;;5.42;100.00;102518.38;5072564;28;20052;-57
2023/01/03 10:20:24;;;;;;;22.23;12.73;;;;;;;5.46;100.00;102520.06;5072087;28;20059;-57
2023/01/03 10:23:00;;;;;;;27.88;13.07;;;;;;;5.48;100.00;102505.25;5069082;28;20415;-57
2023/01/03 10:25:30;;;;;;;25.70;12.63;;;;;;;5.52;100.00;102516.47;5070648;28;20127;-48
2023/01/03 10:28:06;;;;;;;25.42;13.35;;;;;;;5.56;100.00;102515.53;5070925;28;20391;-52
2023/01/03 10:30:49;;;;;;;23.90;12.38;;;;;;;5.62;100.00;102512.81;5071012;28;20499;-51
2023/01/03 10:33:33;;;;;;;23.65;12.07;;;;;;;5.66;100.00;102511.88;5067852;28;20599;-50
2023/01/03 10:36:02;;;;;;;27.08;12.60;;;;;;;5.69;100.00;102508.34;5070575;28;20059;-50
2023/01/03 10:38:30;;;;;;;24.23;12.55;;;;;;;5.71;100.00;102506.56;5072498;28;20064;-52
2023/01/03 10:41:16;;;;;;;28.88;12.70;;;;;;;5.71;100.00;102511.78;5072233;28;20045;-51
2023/01/03 10:43:55;;;;;;;23.02;11.82;;;;;;;5.72;100.00;102509.16;5072516;28;20395;-51
2023/01/03 10:46:24;;;;;;;24.83;12.43;;;;;;;5.79;100.00;102511.66;5072539;28;20055;-49
2023/01/03 10:48:54;;;;;;;24.00;12.90;;;;;;;5.80;100.00;102506.41;5072049;28;20061;-50
2023/01/03 10:51:54;;;;;;;27.65;12.13;;;;;;;5.85;100.00;102512.41;5071871;28;20091;-51
2023/01/03 10:54:30;;;;;;;29.30;12.50;;;;;;;5.87;100.00;102510.63;5071962;28;20052;-51
2023/01/03 10:57:00;;;;;;;26.42;12.43;;;;;;;5.91;100.00;102506.19;5072085;28;20459;-51
2023/01/03 10:59:29;;;;;;;22.52;12.23;;;;;;;5.95;100.00;102499.19;5067248;28;20063;-51
2023/01/03 11:02:00;;;;;;;21.50;11.88;;;;;;;5.99;100.00;102493.03;5066990;28;20040;-51
2023/01/03 11:04:30;;;;;;;24.20;12.45;;;;;;;6.00;100.00;102490.41;5072411;28;20484;-51
2023/01/03 11:07:04;;;;;;;22.65;12.07;;;;;;;6.02;100.00;102495.59;5072254;28;20052;-51
2023/01/03 11:09:35;;;;;;;23.40;11.90;;;;;;;6.01;100.00;102491.25;5072165;28;20045;-51
2023/01/03 11:12:12;;;;;;;20.83;10.95;;;;;;;6.01;100.00;102484.28;5070983;28;20053;-52
2023/01/03 11:14:50;;;;;;;23.27;10.90;;;;;;;6.12;100.00;102480.59;5068001;28;20044;-51
2023/01/03 11:17:20;;;;;;;23.92;11.18;;;;;;;6.15;100.00;102485.75;5069327;28;20048;-53
2023/01/03 11:19:50;;;;;;;24.58;11.98;;;;;;;6.15;100.00;102488.34;5071837;28;20123;-52
2023/01/03 11:22:31;;;;;;;23.88;10.95;;;;;;;6.17;100.00;102486.59;5068268;28;20527;-52
2023/01/03 11:25:25;;;;;;;22.52;10.38;;;;;;;6.24;100.00;102475.97;5069007;28;20048;-53
2023/01/03 11:28:07;;;;;;;20.67;10.10;;;;;;;6.30;100.00;102481.94;5071949;28;20507;-52
2023/01/03 11:30:50;;;;;;;17.52;9.98;;;;;;;6.32;100.00;102486.25;5071946;28;20048;-53
2023/01/03 11:33:31;;;;;;;18.80;10.38;;;;;;;6.36;100.00;102484.44;5075349;28;20041;-51
2023/01/03 11:36:11;;;;;;;14.95;8.73;;;;;;;6.42;100.00;102473.84;5075272;28;20048;-52
2023/01/03 11:38:47;;;;;;;15.95;8.75;;;;;;;6.43;100.00;102480.81;5075684;28;20052;-51
2023/01/03 11:41:28;;;;;;;19.05;9.60;;;;;;;6.46;100.00;102477.25;5075280;28;20059;-50
2023/01/03 11:44:21;;;;;;;18.60;8.05;;;;;;;6.46;100.00;102470.28;5075556;28;20032;-51
2023/01/03 11:47:04;;;;;;;16.90;8.40;;;;;;;6.50;100.00;102465.84;5073905;28;20454;-52
2023/01/03 11:49:43;;;;;;;15.52;8.95;;;;;;;6.50;100.00;102461.47;5070310;28;20051;-51
2023/01/03 11:52:18;;;;;;;14.32;7.75;;;;;;;6.59;100.00;102460.41;5072123;28;20098;-49
2023/01/03 11:55:19;;;;;;;18.42;8.90;;;;;;;6.54;100.00;102457.88;5072613;28;20047;-51
2023/01/03 11:57:57;;;;;;;15.85;8.70;;;;;;;6.58;100.00;102458.69;5069850;28;20059;-50
2023/01/03 12:00:34;;;;;;;17.63;8.43;;;;;;;6.59;100.00;102458.66;5075080;28;20059;-51
2023/01/03 12:03:08;;;;;;;15.10;8.00;;;;;;;6.62;100.00;102459.50;5075013;28;20033;-52
2023/01/03 12:05:42;;;;;;;16.63;8.20;;;;;;;6.69;100.00;102448.00;5074900;28;20049;-51
2023/01/03 12:08:45;;;;;;;15.55;7.97;;;;;;;6.64;100.00;102444.63;5074806;28;20052;-50
2023/01/03 12:11:22;;;;;;;;;;;;;;;6.63;100.00;102442.91;5065135;28;20060;-51
2023/01/03 12:14:03;;;;;;;15.88;7.82;;;;;;;6.70;100.00;102437.50;5074739;28;20444;-52
2023/01/03 12:16:39;;;;;;;14.23;7.60;;;;;;;6.68;100.00;102444.53;5074822;28;20048;-51
2023/01/03 12:19:24;;;;;;;16.98;8.07;;;;;;;6.71;100.00;102440.97;5073449;28;20052;-53
2023/01/03 12:21:56;;;;;;;14.55;7.85;;;;;;;6.76;100.00;102449.56;5071502;28;20048;-50
2023/01/03 12:24:33;;;;;;;16.42;8.20;;;;;;;6.76;100.00;102449.56;5073074;28;20044;-53
2023/01/03 12:27:05;;;;;;;13.85;7.75;;;;;;;6.80;100.00;102448.59;5074296;28;20055;-53
2023/01/03 12:29:46;;;;;;;14.32;8.25;;;;;;;6.83;100.00;102448.53;5069729;28;20048;-51
2023/01/03 12:32:21;;;;;;;15.70;8.25;;;;;;;6.85;100.00;102441.50;5071426;28;20048;-50
2023/01/03 12:34:54;;;;;;;18.70;8.93;;;;;;;6.82;100.00;102440.72;5074325;28;20063;-58
2023/01/03 12:37:25;;;;;;;15.43;7.75;;;;;;;6.85;100.00;102440.66;5073999;28;20056;-58